sensor_id;sensor_type;location;lat;lon;timestamp;P1;durP1;ratioP1;P2;durP2;ratioP2
20383;SDS011;46458;50.966;7.002;2024-03-25T00:00:06;13.50;;;4.03;;
20383;SDS011;46458;50.966;7.002;2024-03-25T00:02:39;13.73;;;4.03;;
20383;SDS011;46458;50.966;7.002;2024-03-25T00:05:07;10.50;;;3.90;;
20383;SDS011;46458;50.966;7.002;2024-03-25T00:07:34;14.03;;;4.03;;
20383;SDS011;46458;50.966;7.002;2024-03-25T00:10:01;12.77;;;4.20;;
20383;SDS011;46458;50.966;7.002;2024-03-25T00:12:28;11.80;;;4.17;;
20383;SDS011;46458;50.966;7.002;2024-03-25T00:14:54;11.07;;;3.97;;
20383;SDS011;46458;50.966;7.002;2024-03-25T00:17:20;9.70;;;3.10;;
20383;SDS011;46458;50.966;7.002;2024-03-25T00:19:49;10.90;;;3.80;;
20383;SDS011;46458;50.966;7.002;2024-03-25T00:22:16;10.63;;;3.80;;
20383;SDS011;46458;50.966;7.002;2024-03-25T00:24:42;14.13;;;3.40;;
20383;SDS011;46458;50.966;7.002;2024-03-25T00:27:08;10.63;;;4.03;;
20383;SDS011;46458;50.966;7.002;2024-03-25T00:29:34;16.03;;;4.47;;
20383;SDS011;46458;50.966;7.002;2024-03-25T00:32:04;16.43;;;4.30;;
20383;SDS011;46458;50.966;7.002;2024-03-25T00:34:33;13.80;;;3.90;;
20383;SDS011;46458;50.966;7.002;2024-03-25T00:37:01;10.03;;;3.63;;
20383;SDS011;46458;50.966;7.002;2024-03-25T00:39:29;14.40;;;3.93;;
20383;SDS011;46458;50.966;7.002;2024-03-25T00:41:56;12.30;;;3.93;;
20383;SDS011;46458;50.966;7.002;2024-03-25T00:44:22;11.23;;;4.07;;
20383;SDS011;46458;50.966;7.002;2024-03-25T00:46:49;8.57;;;3.73;;
20383;SDS011;46458;50.966;7.002;2024-03-25T00:49:15;11.57;;;4.37;;
20383;SDS011;46458;50.966;7.002;2024-03-25T00:51:41;12.33;;;4.60;;
20383;SDS011;46458;50.966;7.002;2024-03-25T00:54:11;14.10;;;4.37;;
20383;SDS011;46458;50.966;7.002;2024-03-25T00:56:37;12.83;;;4.20;;
20383;SDS011;46458;50.966;7.002;2024-03-25T00:59:03;10.37;;;3.80;;
20383;SDS011;46458;50.966;7.002;2024-03-25T01:01:29;11.87;;;4.50;;
20383;SDS011;46458;50.966;7.002;2024-03-25T01:03:56;14.83;;;4.77;;
20383;SDS011;46458;50.966;7.002;2024-03-25T01:06:22;10.57;;;4.40;;
20383;SDS011;46458;50.966;7.002;2024-03-25T01:08:49;10.80;;;4.50;;
20383;SDS011;46458;50.966;7.002;2024-03-25T01:11:19;16.17;;;4.73;;
20383;SDS011;46458;50.966;7.002;2024-03-25T01:13:45;16.30;;;4.50;;
20383;SDS011;46458;50.966;7.002;2024-03-25T01:16:11;12.50;;;4.70;;
20383;SDS011;46458;50.966;7.002;2024-03-25T01:18:37;12.13;;;3.83;;
20383;SDS011;46458;50.966;7.002;2024-03-25T01:21:03;13.03;;;3.87;;
20383;SDS011;46458;50.966;7.002;2024-03-25T01:23:30;17.10;;;4.63;;
20383;SDS011;46458;50.966;7.002;2024-03-25T01:25:56;11.63;;;3.97;;
20383;SDS011;46458;50.966;7.002;2024-03-25T01:28:25;16.70;;;4.33;;
20383;SDS011;46458;50.966;7.002;2024-03-25T01:30:51;16.40;;;3.80;;
20383;SDS011;46458;50.966;7.002;2024-03-25T01:33:27;15.00;;;4.07;;
20383;SDS011;46458;50.966;7.002;2024-03-25T01:35:53;14.13;;;4.30;;
20383;SDS011;46458;50.966;7.002;2024-03-25T01:38:19;10.87;;;4.57;;
20383;SDS011;46458;50.966;7.002;2024-03-25T01:40:46;13.27;;;4.10;;
20383;SDS011;46458;50.966;7.002;2024-03-25T01:43:12;16.80;;;3.63;;
20383;SDS011;46458;50.966;7.002;2024-03-25T01:45:40;11.40;;;3.70;;
20383;SDS011;46458;50.966;7.002;2024-03-25T01:48:08;14.13;;;3.33;;
20383;SDS011;46458;50.966;7.002;2024-03-25T01:50:38;15.77;;;3.60;;
20383;SDS011;46458;50.966;7.002;2024-03-25T01:53:07;11.77;;;3.50;;
20383;SDS011;46458;50.966;7.002;2024-03-25T01:55:34;16.30;;;4.67;;
20383;SDS011;46458;50.966;7.002;2024-03-25T01:58:01;13.60;;;3.97;;
20383;SDS011;46458;50.966;7.002;2024-03-25T02:00:27;12.40;;;3.73;;
20383;SDS011;46458;50.966;7.002;2024-03-25T02:02:56;17.63;;;4.03;;
20383;SDS011;46458;50.966;7.002;2024-03-25T02:05:23;15.97;;;3.70;;
20383;SDS011;46458;50.966;7.002;2024-03-25T02:07:50;13.67;;;3.20;;
20383;SDS011;46458;50.966;7.002;2024-03-25T02:10:20;14.70;;;4.20;;
20383;SDS011;46458;50.966;7.002;2024-03-25T02:12:47;14.63;;;3.30;;
20383;SDS011;46458;50.966;7.002;2024-03-25T02:15:15;17.90;;;3.97;;
20383;SDS011;46458;50.966;7.002;2024-03-25T02:17:41;14.00;;;3.80;;
20383;SDS011;46458;50.966;7.002;2024-03-25T02:20:10;14.07;;;3.37;;
20383;SDS011;46458;50.966;7.002;2024-03-25T02:22:37;16.77;;;4.10;;
20383;SDS011;46458;50.966;7.002;2024-03-25T02:25:05;11.63;;;4.03;;
20383;SDS011;46458;50.966;7.002;2024-03-25T02:27:35;16.83;;;3.97;;
20383;SDS011;46458;50.966;7.002;2024-03-25T02:30:03;19.67;;;4.10;;
20383;SDS011;46458;50.966;7.002;2024-03-25T02:32:31;14.57;;;4.00;;
20383;SDS011;46458;50.966;7.002;2024-03-25T02:34:57;12.07;;;3.37;;
20383;SDS011;46458;50.966;7.002;2024-03-25T02:37:24;17.10;;;3.80;;
20383;SDS011;46458;50.966;7.002;2024-03-25T02:39:51;11.63;;;3.83;;
20383;SDS011;46458;50.966;7.002;2024-03-25T02:42:21;13.97;;;4.23;;
20383;SDS011;46458;50.966;7.002;2024-03-25T02:44:50;9.97;;;3.10;;
20383;SDS011;46458;50.966;7.002;2024-03-25T02:47:16;17.07;;;4.33;;
20383;SDS011;46458;50.966;7.002;2024-03-25T02:49:42;15.07;;;3.17;;
20383;SDS011;46458;50.966;7.002;2024-03-25T02:52:08;13.70;;;3.67;;
20383;SDS011;46458;50.966;7.002;2024-03-25T02:54:35;17.90;;;7.37;;
20383;SDS011;46458;50.966;7.002;2024-03-25T02:57:01;16.23;;;4.37;;
20383;SDS011;46458;50.966;7.002;2024-03-25T02:59:27;20.17;;;4.53;;
20383;SDS011;46458;50.966;7.002;2024-03-25T03:01:56;11.57;;;3.73;;
20383;SDS011;46458;50.966;7.002;2024-03-25T03:04:22;14.67;;;4.53;;
20383;SDS011;46458;50.966;7.002;2024-03-25T03:06:48;14.90;;;4.00;;
20383;SDS011;46458;50.966;7.002;2024-03-25T03:09:14;13.93;;;3.60;;
20383;SDS011;46458;50.966;7.002;2024-03-25T03:11:41;10.70;;;3.90;;
20383;SDS011;46458;50.966;7.002;2024-03-25T03:14:10;15.43;;;3.97;;
20383;SDS011;46458;50.966;7.002;2024-03-25T03:16:36;13.47;;;3.87;;
20383;SDS011;46458;50.966;7.002;2024-03-25T03:19:05;17.83;;;4.23;;
20383;SDS011;46458;50.966;7.002;2024-03-25T03:21:31;13.50;;;4.10;;
20383;SDS011;46458;50.966;7.002;2024-03-25T03:23:58;9.87;;;3.70;;
20383;SDS011;46458;50.966;7.002;2024-03-25T03:26:24;13.67;;;3.53;;
20383;SDS011;46458;50.966;7.002;2024-03-25T03:28:50;12.60;;;4.10;;
20383;SDS011;46458;50.966;7.002;2024-03-25T03:31:17;12.07;;;3.70;;
20383;SDS011;46458;50.966;7.002;2024-03-25T03:33:43;17.43;;;3.93;;
20383;SDS011;46458;50.966;7.002;2024-03-25T03:36:11;12.37;;;3.77;;
20383;SDS011;46458;50.966;7.002;2024-03-25T03:38:38;17.20;;;4.30;;
20383;SDS011;46458;50.966;7.002;2024-03-25T03:41:04;19.70;;;4.03;;
20383;SDS011;46458;50.966;7.002;2024-03-25T03:43:30;19.57;;;4.03;;
20383;SDS011;46458;50.966;7.002;2024-03-25T03:45:59;11.77;;;3.30;;
20383;SDS011;46458;50.966;7.002;2024-03-25T03:48:25;13.07;;;3.87;;
20383;SDS011;46458;50.966;7.002;2024-03-25T03:50:51;16.20;;;3.53;;
20383;SDS011;46458;50.966;7.002;2024-03-25T03:53:23;13.47;;;4.00;;
20383;SDS011;46458;50.966;7.002;2024-03-25T03:55:55;10.50;;;3.47;;
20383;SDS011;46458;50.966;7.002;2024-03-25T03:58:23;13.23;;;3.83;;
20383;SDS011;46458;50.966;7.002;2024-03-25T04:00:50;13.37;;;4.23;;
20383;SDS011;46458;50.966;7.002;2024-03-25T04:03:16;10.13;;;3.67;;
20383;SDS011;46458;50.966;7.002;2024-03-25T04:05:43;11.13;;;3.60;;
20383;SDS011;46458;50.966;7.002;2024-03-25T04:08:09;11.23;;;3.57;;
20383;SDS011;46458;50.966;7.002;2024-03-25T04:10:41;13.00;;;3.80;;
20383;SDS011;46458;50.966;7.002;2024-03-25T04:13:08;14.80;;;3.67;;
20383;SDS011;46458;50.966;7.002;2024-03-25T04:15:35;14.67;;;4.33;;
20383;SDS011;46458;50.966;7.002;2024-03-25T04:18:02;16.27;;;4.17;;
20383;SDS011;46458;50.966;7.002;2024-03-25T04:20:29;14.10;;;3.83;;
20383;SDS011;46458;50.966;7.002;2024-03-25T04:23:01;17.33;;;3.73;;
20383;SDS011;46458;50.966;7.002;2024-03-25T04:25:27;12.97;;;3.70;;
20383;SDS011;46458;50.966;7.002;2024-03-25T04:27:59;11.70;;;3.40;;
20383;SDS011;46458;50.966;7.002;2024-03-25T04:30:25;16.67;;;3.57;;
20383;SDS011;46458;50.966;7.002;2024-03-25T04:32:51;11.47;;;3.80;;
20383;SDS011;46458;50.966;7.002;2024-03-25T04:35:24;14.87;;;4.03;;
20383;SDS011;46458;50.966;7.002;2024-03-25T04:37:50;12.97;;;4.43;;
20383;SDS011;46458;50.966;7.002;2024-03-25T04:40:16;17.70;;;4.40;;
20383;SDS011;46458;50.966;7.002;2024-03-25T04:42:45;11.33;;;3.93;;
20383;SDS011;46458;50.966;7.002;2024-03-25T04:45:14;14.40;;;3.90;;
20383;SDS011;46458;50.966;7.002;2024-03-25T04:47:44;15.40;;;4.20;;
20383;SDS011;46458;50.966;7.002;2024-03-25T04:50:13;15.63;;;3.47;;
20383;SDS011;46458;50.966;7.002;2024-03-25T04:52:39;10.10;;;3.93;;
20383;SDS011;46458;50.966;7.002;2024-03-25T04:55:08;14.27;;;4.10;;
20383;SDS011;46458;50.966;7.002;2024-03-25T04:57:34;12.57;;;3.37;;
20383;SDS011;46458;50.966;7.002;2024-03-25T05:00:03;11.97;;;3.40;;
20383;SDS011;46458;50.966;7.002;2024-03-25T05:02:35;11.67;;;3.33;;
20383;SDS011;46458;50.966;7.002;2024-03-25T05:05:01;19.10;;;4.10;;
20383;SDS011;46458;50.966;7.002;2024-03-25T05:07:30;16.83;;;3.50;;
20383;SDS011;46458;50.966;7.002;2024-03-25T05:09:57;15.17;;;3.70;;
20383;SDS011;46458;50.966;7.002;2024-03-25T05:12:23;15.73;;;4.87;;
20383;SDS011;46458;50.966;7.002;2024-03-25T05:14:49;11.83;;;4.00;;
20383;SDS011;46458;50.966;7.002;2024-03-25T05:17:15;9.77;;;3.73;;
20383;SDS011;46458;50.966;7.002;2024-03-25T05:19:44;12.67;;;3.93;;
20383;SDS011;46458;50.966;7.002;2024-03-25T05:22:10;15.63;;;3.93;;
20383;SDS011;46458;50.966;7.002;2024-03-25T05:24:36;13.97;;;3.93;;
20383;SDS011;46458;50.966;7.002;2024-03-25T05:27:02;19.03;;;4.10;;
20383;SDS011;46458;50.966;7.002;2024-03-25T05:29:31;15.03;;;4.93;;
20383;SDS011;46458;50.966;7.002;2024-03-25T05:32:01;12.47;;;4.17;;
20383;SDS011;46458;50.966;7.002;2024-03-25T05:34:27;15.13;;;3.90;;
20383;SDS011;46458;50.966;7.002;2024-03-25T05:37:00;18.87;;;4.00;;
20383;SDS011;46458;50.966;7.002;2024-03-25T05:39:27;14.80;;;3.93;;
20383;SDS011;46458;50.966;7.002;2024-03-25T05:41:53;13.97;;;4.20;;
20383;SDS011;46458;50.966;7.002;2024-03-25T05:44:22;14.93;;;4.73;;
20383;SDS011;46458;50.966;7.002;2024-03-25T05:46:49;13.70;;;4.20;;
20383;SDS011;46458;50.966;7.002;2024-03-25T05:49:18;12.03;;;4.07;;
20383;SDS011;46458;50.966;7.002;2024-03-25T05:51:47;16.43;;;4.33;;
20383;SDS011;46458;50.966;7.002;2024-03-25T05:54:16;13.57;;;4.23;;
20383;SDS011;46458;50.966;7.002;2024-03-25T05:56:42;12.60;;;4.80;;
20383;SDS011;46458;50.966;7.002;2024-03-25T05:59:08;18.07;;;4.53;;
20383;SDS011;46458;50.966;7.002;2024-03-25T06:01:37;20.27;;;5.13;;
20383;SDS011;46458;50.966;7.002;2024-03-25T06:04:05;17.13;;;4.67;;
20383;SDS011;46458;50.966;7.002;2024-03-25T06:06:36;19.70;;;5.03;;
20383;SDS011;46458;50.966;7.002;2024-03-25T06:09:03;19.20;;;5.40;;
20383;SDS011;46458;50.966;7.002;2024-03-25T06:11:31;16.37;;;5.37;;
20383;SDS011;46458;50.966;7.002;2024-03-25T06:14:02;16.93;;;4.63;;
20383;SDS011;46458;50.966;7.002;2024-03-25T06:16:29;14.40;;;5.27;;
20383;SDS011;46458;50.966;7.002;2024-03-25T06:19:00;12.30;;;5.10;;
20383;SDS011;46458;50.966;7.002;2024-03-25T06:21:26;15.90;;;4.83;;
20383;SDS011;46458;50.966;7.002;2024-03-25T06:23:52;13.07;;;4.80;;
20383;SDS011;46458;50.966;7.002;2024-03-25T06:26:19;11.37;;;4.97;;
20383;SDS011;46458;50.966;7.002;2024-03-25T06:28:47;13.03;;;4.63;;
20383;SDS011;46458;50.966;7.002;2024-03-25T06:31:13;14.90;;;5.00;;
20383;SDS011;46458;50.966;7.002;2024-03-25T06:33:57;14.03;;;5.00;;
20383;SDS011;46458;50.966;7.002;2024-03-25T06:36:39;16.17;;;5.13;;
20383;SDS011;46458;50.966;7.002;2024-03-25T06:39:08;13.70;;;4.73;;
20383;SDS011;46458;50.966;7.002;2024-03-25T06:41:34;10.10;;;4.60;;
20383;SDS011;46458;50.966;7.002;2024-03-25T06:44:03;14.17;;;4.87;;
20383;SDS011;46458;50.966;7.002;2024-03-25T06:46:32;14.10;;;5.30;;
20383;SDS011;46458;50.966;7.002;2024-03-25T06:48:59;17.73;;;5.00;;
20383;SDS011;46458;50.966;7.002;2024-03-25T06:51:25;18.37;;;6.10;;
20383;SDS011;46458;50.966;7.002;2024-03-25T06:53:59;14.63;;;5.53;;
20383;SDS011;46458;50.966;7.002;2024-03-25T06:56:28;23.00;;;5.57;;
20383;SDS011;46458;50.966;7.002;2024-03-25T06:58:57;16.97;;;5.53;;
20383;SDS011;46458;50.966;7.002;2024-03-25T07:01:26;15.27;;;5.60;;
20383;SDS011;46458;50.966;7.002;2024-03-25T07:03:52;15.40;;;4.53;;
20383;SDS011;46458;50.966;7.002;2024-03-25T07:06:18;12.73;;;4.93;;
20383;SDS011;46458;50.966;7.002;2024-03-25T07:08:44;10.77;;;5.50;;
20383;SDS011;46458;50.966;7.002;2024-03-25T07:11:10;13.53;;;4.77;;
20383;SDS011;46458;50.966;7.002;2024-03-25T07:13:36;13.67;;;5.27;;
20383;SDS011;46458;50.966;7.002;2024-03-25T07:16:03;11.07;;;4.60;;
20383;SDS011;46458;50.966;7.002;2024-03-25T07:18:32;16.37;;;5.80;;
20383;SDS011;46458;50.966;7.002;2024-03-25T07:20:58;15.47;;;5.73;;
20383;SDS011;46458;50.966;7.002;2024-03-25T07:23:24;17.73;;;6.20;;
20383;SDS011;46458;50.966;7.002;2024-03-25T07:25:51;14.43;;;6.20;;
20383;SDS011;46458;50.966;7.002;2024-03-25T07:28:26;11.90;;;5.80;;
20383;SDS011;46458;50.966;7.002;2024-03-25T07:30:52;10.03;;;5.70;;
20383;SDS011;46458;50.966;7.002;2024-03-25T07:33:19;15.30;;;5.87;;
20383;SDS011;46458;50.966;7.002;2024-03-25T07:35:48;17.53;;;6.17;;
20383;SDS011;46458;50.966;7.002;2024-03-25T07:38:14;18.53;;;6.77;;
20383;SDS011;46458;50.966;7.002;2024-03-25T07:40:40;13.97;;;6.07;;
20383;SDS011;46458;50.966;7.002;2024-03-25T07:43:06;14.60;;;6.00;;
20383;SDS011;46458;50.966;7.002;2024-03-25T07:45:32;13.87;;;5.67;;
20383;SDS011;46458;50.966;7.002;2024-03-25T07:48:01;17.87;;;5.23;;
20383;SDS011;46458;50.966;7.002;2024-03-25T07:50:27;13.67;;;5.47;;
20383;SDS011;46458;50.966;7.002;2024-03-25T07:52:59;14.97;;;6.23;;
20383;SDS011;46458;50.966;7.002;2024-03-25T07:55:26;17.33;;;5.50;;
20383;SDS011;46458;50.966;7.002;2024-03-25T07:57:52;17.13;;;5.60;;
20383;SDS011;46458;50.966;7.002;2024-03-25T08:00:19;15.27;;;6.07;;
20383;SDS011;46458;50.966;7.002;2024-03-25T08:02:45;12.67;;;5.00;;
20383;SDS011;46458;50.966;7.002;2024-03-25T08:05:15;16.33;;;6.13;;
20383;SDS011;46458;50.966;7.002;2024-03-25T08:07:42;12.83;;;5.13;;
20383;SDS011;46458;50.966;7.002;2024-03-25T08:10:10;15.57;;;5.37;;
20383;SDS011;46458;50.966;7.002;2024-03-25T08:12:37;21.83;;;5.50;;
20383;SDS011;46458;50.966;7.002;2024-03-25T08:15:03;17.00;;;5.00;;
20383;SDS011;46458;50.966;7.002;2024-03-25T08:17:30;15.00;;;4.47;;
20383;SDS011;46458;50.966;7.002;2024-03-25T08:19:56;17.60;;;5.13;;
20383;SDS011;46458;50.966;7.002;2024-03-25T08:22:23;20.47;;;5.17;;
20383;SDS011;46458;50.966;7.002;2024-03-25T08:24:49;14.00;;;4.17;;
20383;SDS011;46458;50.966;7.002;2024-03-25T08:27:21;13.80;;;4.70;;
20383;SDS011;46458;50.966;7.002;2024-03-25T08:29:52;16.40;;;4.20;;
20383;SDS011;46458;50.966;7.002;2024-03-25T08:32:18;13.83;;;4.03;;
20383;SDS011;46458;50.966;7.002;2024-03-25T08:34:44;13.90;;;4.30;;
20383;SDS011;46458;50.966;7.002;2024-03-25T08:37:11;11.53;;;4.13;;
20383;SDS011;46458;50.966;7.002;2024-03-25T08:39:37;8.63;;;3.90;;
20383;SDS011;46458;50.966;7.002;2024-03-25T08:42:06;13.53;;;4.00;;
20383;SDS011;46458;50.966;7.002;2024-03-25T08:44:38;15.80;;;3.67;;
20383;SDS011;46458;50.966;7.002;2024-03-25T08:47:04;11.73;;;3.13;;
20383;SDS011;46458;50.966;7.002;2024-03-25T08:49:30;9.23;;;4.27;;
20383;SDS011;46458;50.966;7.002;2024-03-25T08:51:59;14.83;;;4.20;;
20383;SDS011;46458;50.966;7.002;2024-03-25T08:54:25;9.17;;;3.00;;
20383;SDS011;46458;50.966;7.002;2024-03-25T08:56:52;13.33;;;3.20;;
20383;SDS011;46458;50.966;7.002;2024-03-25T08:59:18;10.57;;;3.00;;
20383;SDS011;46458;50.966;7.002;2024-03-25T09:01:47;13.70;;;3.30;;
20383;SDS011;46458;50.966;7.002;2024-03-25T09:04:13;11.20;;;3.30;;
20383;SDS011;46458;50.966;7.002;2024-03-25T09:06:39;10.30;;;3.13;;
20383;SDS011;46458;50.966;7.002;2024-03-25T09:09:06;9.73;;;2.90;;
20383;SDS011;46458;50.966;7.002;2024-03-25T09:11:47;10.17;;;2.97;;
20383;SDS011;46458;50.966;7.002;2024-03-25T09:14:13;11.63;;;3.80;;
20383;SDS011;46458;50.966;7.002;2024-03-25T09:16:39;7.17;;;2.90;;
20383;SDS011;46458;50.966;7.002;2024-03-25T09:19:08;9.83;;;2.97;;
20383;SDS011;46458;50.966;7.002;2024-03-25T09:21:34;12.53;;;3.30;;
20383;SDS011;46458;50.966;7.002;2024-03-25T09:24:00;14.43;;;3.40;;
20383;SDS011;46458;50.966;7.002;2024-03-25T09:26:29;9.97;;;3.60;;
20383;SDS011;46458;50.966;7.002;2024-03-25T09:28:56;11.63;;;2.70;;
20383;SDS011;46458;50.966;7.002;2024-03-25T09:31:24;12.77;;;3.37;;
20383;SDS011;46458;50.966;7.002;2024-03-25T09:33:59;11.90;;;3.33;;
20383;SDS011;46458;50.966;7.002;2024-03-25T09:36:31;9.43;;;3.03;;
20383;SDS011;46458;50.966;7.002;2024-03-25T09:38:57;11.63;;;3.43;;
20383;SDS011;46458;50.966;7.002;2024-03-25T09:41:23;8.40;;;2.73;;
20383;SDS011;46458;50.966;7.002;2024-03-25T09:43:52;10.60;;;3.20;;
20383;SDS011;46458;50.966;7.002;2024-03-25T09:46:22;8.80;;;2.93;;
20383;SDS011;46458;50.966;7.002;2024-03-25T09:48:49;11.90;;;3.13;;
20383;SDS011;46458;50.966;7.002;2024-03-25T09:51:18;8.97;;;3.57;;
20383;SDS011;46458;50.966;7.002;2024-03-25T09:53:47;10.53;;;3.00;;
20383;SDS011;46458;50.966;7.002;2024-03-25T09:56:13;9.90;;;3.03;;
20383;SDS011;46458;50.966;7.002;2024-03-25T09:58:40;5.27;;;2.67;;
20383;SDS011;46458;50.966;7.002;2024-03-25T10:01:07;15.63;;;3.53;;
20383;SDS011;46458;50.966;7.002;2024-03-25T10:03:33;11.20;;;3.07;;
20383;SDS011;46458;50.966;7.002;2024-03-25T10:05:59;9.17;;;3.83;;
20383;SDS011;46458;50.966;7.002;2024-03-25T10:08:26;8.80;;;2.90;;
20383;SDS011;46458;50.966;7.002;2024-03-25T10:10:56;9.47;;;3.50;;
20383;SDS011;46458;50.966;7.002;2024-03-25T10:13:22;9.83;;;2.80;;
20383;SDS011;46458;50.966;7.002;2024-03-25T10:15:49;12.00;;;3.27;;
20383;SDS011;46458;50.966;7.002;2024-03-25T10:18:15;7.87;;;3.00;;
20383;SDS011;46458;50.966;7.002;2024-03-25T10:20:47;12.77;;;3.23;;
20383;SDS011;46458;50.966;7.002;2024-03-25T10:23:19;8.47;;;3.10;;
20383;SDS011;46458;50.966;7.002;2024-03-25T10:25:47;10.55;;;4.05;;
20383;SDS011;46458;50.966;7.002;2024-03-25T10:28:16;6.03;;;3.30;;
20383;SDS011;46458;50.966;7.002;2024-03-25T10:30:43;9.70;;;3.00;;
20383;SDS011;46458;50.966;7.002;2024-03-25T10:33:09;4.70;;;2.57;;
20383;SDS011;46458;50.966;7.002;2024-03-25T10:35:36;10.13;;;3.17;;
20383;SDS011;46458;50.966;7.002;2024-03-25T10:38:07;7.53;;;3.10;;
20383;SDS011;46458;50.966;7.002;2024-03-25T10:40:35;6.63;;;2.70;;
20383;SDS011;46458;50.966;7.002;2024-03-25T10:43:03;7.70;;;2.95;;
20383;SDS011;46458;50.966;7.002;2024-03-25T10:45:33;8.25;;;2.55;;
20383;SDS011;46458;50.966;7.002;2024-03-25T10:48:02;6.45;;;2.00;;
20383;SDS011;46458;50.966;7.002;2024-03-25T10:50:34;5.88;;;2.67;;
20383;SDS011;46458;50.966;7.002;2024-03-25T10:53:02;5.90;;;2.85;;
20383;SDS011;46458;50.966;7.002;2024-03-25T10:55:30;7.95;;;2.45;;
20383;SDS011;46458;50.966;7.002;2024-03-25T10:57:57;6.72;;;2.75;;
20383;SDS011;46458;50.966;7.002;2024-03-25T11:00:24;9.40;;;2.80;;
20383;SDS011;46458;50.966;7.002;2024-03-25T11:02:53;5.68;;;2.22;;
20383;SDS011;46458;50.966;7.002;2024-03-25T11:05:20;5.05;;;2.33;;
20383;SDS011;46458;50.966;7.002;2024-03-25T11:07:46;7.22;;;2.67;;
20383;SDS011;46458;50.966;7.002;2024-03-25T11:10:13;5.10;;;2.15;;
20383;SDS011;46458;50.966;7.002;2024-03-25T11:12:54;6.55;;;2.33;;
20383;SDS011;46458;50.966;7.002;2024-03-25T11:15:20;7.78;;;2.35;;
20383;SDS011;46458;50.966;7.002;2024-03-25T11:17:50;5.97;;;2.22;;
20383;SDS011;46458;50.966;7.002;2024-03-25T11:20:19;5.82;;;1.70;;
20383;SDS011;46458;50.966;7.002;2024-03-25T11:22:48;4.82;;;2.10;;
20383;SDS011;46458;50.966;7.002;2024-03-25T11:25:15;6.53;;;2.38;;
20383;SDS011;46458;50.966;7.002;2024-03-25T11:27:42;5.95;;;2.10;;
20383;SDS011;46458;50.966;7.002;2024-03-25T11:30:10;6.30;;;1.75;;
20383;SDS011;46458;50.966;7.002;2024-03-25T11:32:51;5.53;;;1.95;;
20383;SDS011;46458;50.966;7.002;2024-03-25T11:35:20;6.88;;;2.20;;
20383;SDS011;46458;50.966;7.002;2024-03-25T11:37:48;4.90;;;1.85;;
20383;SDS011;46458;50.966;7.002;2024-03-25T11:40:14;5.40;;;2.03;;
20383;SDS011;46458;50.966;7.002;2024-03-25T11:42:41;5.32;;;2.00;;
20383;SDS011;46458;50.966;7.002;2024-03-25T11:45:13;6.53;;;1.85;;
20383;SDS011;46458;50.966;7.002;2024-03-25T11:47:41;5.18;;;1.67;;
20383;SDS011;46458;50.966;7.002;2024-03-25T11:50:08;4.57;;;1.67;;
20383;SDS011;46458;50.966;7.002;2024-03-25T11:52:41;4.28;;;1.90;;
20383;SDS011;46458;50.966;7.002;2024-03-25T11:55:08;6.18;;;2.35;;
20383;SDS011;46458;50.966;7.002;2024-03-25T11:57:36;5.50;;;2.10;;
20383;SDS011;46458;50.966;7.002;2024-03-25T12:00:03;5.00;;;1.85;;
20383;SDS011;46458;50.966;7.002;2024-03-25T12:02:39;5.15;;;2.20;;
20383;SDS011;46458;50.966;7.002;2024-03-25T12:05:09;5.95;;;2.10;;
20383;SDS011;46458;50.966;7.002;2024-03-25T12:07:38;4.70;;;2.10;;
20383;SDS011;46458;50.966;7.002;2024-03-25T12:10:08;3.97;;;1.98;;
20383;SDS011;46458;50.966;7.002;2024-03-25T12:12:49;4.70;;;2.05;;
20383;SDS011;46458;50.966;7.002;2024-03-25T12:15:19;7.05;;;2.20;;
20383;SDS011;46458;50.966;7.002;2024-03-25T12:17:46;6.10;;;1.80;;
20383;SDS011;46458;50.966;7.002;2024-03-25T12:20:12;6.97;;;2.35;;
20383;SDS011;46458;50.966;7.002;2024-03-25T12:22:41;5.97;;;2.05;;
20383;SDS011;46458;50.966;7.002;2024-03-25T12:25:13;4.65;;;2.10;;
20383;SDS011;46458;50.966;7.002;2024-03-25T12:27:39;6.63;;;2.15;;
20383;SDS011;46458;50.966;7.002;2024-03-25T12:30:06;5.72;;;2.10;;
20383;SDS011;46458;50.966;7.002;2024-03-25T12:32:37;6.43;;;2.10;;
20383;SDS011;46458;50.966;7.002;2024-03-25T12:35:06;4.20;;;2.35;;
20383;SDS011;46458;50.966;7.002;2024-03-25T12:37:33;5.65;;;2.00;;
20383;SDS011;46458;50.966;7.002;2024-03-25T12:40:01;4.75;;;2.25;;
20383;SDS011;46458;50.966;7.002;2024-03-25T12:42:30;7.40;;;2.17;;
20383;SDS011;46458;50.966;7.002;2024-03-25T12:44:56;5.80;;;2.40;;
20383;SDS011;46458;50.966;7.002;2024-03-25T12:47:23;4.78;;;2.03;;
20383;SDS011;46458;50.966;7.002;2024-03-25T12:49:49;5.90;;;2.38;;
20383;SDS011;46458;50.966;7.002;2024-03-25T12:52:15;5.30;;;1.60;;
20383;SDS011;46458;50.966;7.002;2024-03-25T12:54:42;2.63;;;1.42;;
20383;SDS011;46458;50.966;7.002;2024-03-25T12:57:08;5.10;;;1.70;;
20383;SDS011;46458;50.966;7.002;2024-03-25T12:59:37;3.45;;;1.50;;
20383;SDS011;46458;50.966;7.002;2024-03-25T13:02:03;5.32;;;1.63;;
20383;SDS011;46458;50.966;7.002;2024-03-25T13:04:32;6.32;;;2.20;;
20383;SDS011;46458;50.966;7.002;2024-03-25T13:06:58;4.28;;;1.95;;
20383;SDS011;46458;50.966;7.002;2024-03-25T13:09:25;3.10;;;1.63;;
20383;SDS011;46458;50.966;7.002;2024-03-25T13:11:51;6.28;;;1.73;;
20383;SDS011;46458;50.966;7.002;2024-03-25T13:14:17;5.57;;;1.60;;
20383;SDS011;46458;50.966;7.002;2024-03-25T13:16:47;5.53;;;1.60;;
20383;SDS011;46458;50.966;7.002;2024-03-25T13:19:16;4.38;;;1.70;;
20383;SDS011;46458;50.966;7.002;2024-03-25T13:21:46;5.13;;;1.63;;
20383;SDS011;46458;50.966;7.002;2024-03-25T13:24:15;4.25;;;1.63;;
20383;SDS011;46458;50.966;7.002;2024-03-25T13:26:41;4.85;;;1.88;;
20383;SDS011;46458;50.966;7.002;2024-03-25T13:29:09;6.47;;;2.63;;
20383;SDS011;46458;50.966;7.002;2024-03-25T13:31:36;5.15;;;2.28;;
20383;SDS011;46458;50.966;7.002;2024-03-25T13:34:06;2.88;;;1.58;;
20383;SDS011;46458;50.966;7.002;2024-03-25T13:36:32;4.72;;;2.13;;
20383;SDS011;46458;50.966;7.002;2024-03-25T13:38:58;2.92;;;1.80;;
20383;SDS011;46458;50.966;7.002;2024-03-25T13:41:25;3.05;;;1.50;;
20383;SDS011;46458;50.966;7.002;2024-03-25T13:43:57;4.15;;;1.90;;
20383;SDS011;46458;50.966;7.002;2024-03-25T13:46:23;3.42;;;2.03;;
20383;SDS011;46458;50.966;7.002;2024-03-25T13:48:49;6.93;;;1.75;;
20383;SDS011;46458;50.966;7.002;2024-03-25T13:51:18;5.00;;;1.88;;
20383;SDS011;46458;50.966;7.002;2024-03-25T13:53:47;3.78;;;1.50;;
20383;SDS011;46458;50.966;7.002;2024-03-25T13:56:13;2.28;;;1.25;;
20383;SDS011;46458;50.966;7.002;2024-03-25T13:58:42;3.10;;;1.50;;
20383;SDS011;46458;50.966;7.002;2024-03-25T14:01:09;6.70;;;1.75;;
20383;SDS011;46458;50.966;7.002;2024-03-25T14:03:38;2.17;;;1.30;;
20383;SDS011;46458;50.966;7.002;2024-03-25T14:06:04;2.10;;;1.30;;
20383;SDS011;46458;50.966;7.002;2024-03-25T14:08:33;3.35;;;1.70;;
20383;SDS011;46458;50.966;7.002;2024-03-25T14:10:59;4.10;;;1.77;;
20383;SDS011;46458;50.966;7.002;2024-03-25T14:13:27;3.78;;;1.50;;
20383;SDS011;46458;50.966;7.002;2024-03-25T14:15:54;3.47;;;1.42;;
20383;SDS011;46458;50.966;7.002;2024-03-25T14:18:21;2.83;;;1.35;;
20383;SDS011;46458;50.966;7.002;2024-03-25T14:20:51;2.40;;;1.27;;
20383;SDS011;46458;50.966;7.002;2024-03-25T14:23:20;3.65;;;1.52;;
20383;SDS011;46458;50.966;7.002;2024-03-25T14:25:49;2.53;;;1.38;;
20383;SDS011;46458;50.966;7.002;2024-03-25T14:28:17;4.30;;;1.35;;
20383;SDS011;46458;50.966;7.002;2024-03-25T14:30:43;4.20;;;1.75;;
20383;SDS011;46458;50.966;7.002;2024-03-25T14:33:09;2.88;;;1.35;;
20383;SDS011;46458;50.966;7.002;2024-03-25T14:35:39;2.92;;;1.60;;
20383;SDS011;46458;50.966;7.002;2024-03-25T14:38:05;2.40;;;1.30;;
20383;SDS011;46458;50.966;7.002;2024-03-25T14:40:37;2.72;;;1.50;;